Time;durP1;ratioP1;P1;durP2;ratioP2;P2;SDS_P1;SDS_P2;PMS_P1;PMS_P2;Temp;Humidity;BMP_temperature;BMP_pressure;BME280_temperature;BME280_humidity;BME280_pressure;Samples;Min_cycle;Max_cycle;Signal;HPM_P1;HPM_P2
2023/06/15 00:00:25;;;;;;;3.78;1.50;;;16.00;1.00;;;;;;5051716;28;20052;-63
2023/06/15 00:02:54;;;;;;;1.77;1.30;;;16.00;1.00;;;;;;5053184;28;20063;-62
2023/06/15 00:05:20;;;;;;;4.07;1.70;;;15.90;1.00;;;;;;5051760;28;20056;-62
2023/06/15 00:07:48;;;;;;;2.70;1.67;;;15.80;1.00;;;;;;5053253;28;20472;-63
2023/06/15 00:10:17;;;;;;;4.85;1.70;;;15.80;1.00;;;;;;5051690;28;20121;-62
2023/06/15 00:12:43;;;;;;;2.63;1.75;;;15.80;1.00;;;;;;5053223;28;20037;-62
2023/06/15 00:15:10;;;;;;;2.28;1.58;;;15.80;1.00;;;;;;5035321;28;20033;-62
2023/06/15 00:17:41;;;;;;;3.08;1.45;;;15.70;1.00;;;;;;5035004;28;20048;-62
2023/06/15 00:20:13;;;;;;;2.47;1.67;;;15.80;1.00;;;;;;5051676;28;20040;-62
2023/06/15 00:22:41;;;;;;;4.13;1.30;;;15.80;1.00;;;;;;5051544;28;20040;-63
2023/06/15 00:25:10;;;;;;;2.13;1.15;;;15.70;1.00;;;;;;5052885;28;20044;-62
2023/06/15 00:27:36;;;;;;;3.08;1.55;;;15.70;1.00;;;;;;5034712;28;20041;-62
2023/06/15 00:30:10;;;;;;;8.38;1.90;;;15.70;1.00;;;;;;5052709;28;20040;-62
2023/06/15 00:32:35;;;;;;;3.05;1.75;;;15.70;1.00;;;;;;5052697;28;20561;-62
2023/06/15 00:35:02;;;;;;;2.42;1.52;;;15.60;1.00;;;;;;5035089;28;20112;-62
2023/06/15 00:37:27;;;;;;;3.22;1.42;;;15.60;1.00;;;;;;5052574;28;20053;-62
2023/06/15 00:39:57;;;;;;;3.78;1.40;;;15.50;1.00;;;;;;5052516;28;20045;-62
2023/06/15 00:42:22;;;;;;;6.18;1.50;;;15.50;1.00;;;;;;5051569;28;20040;-62
2023/06/15 00:44:48;;;;;;;2.53;1.58;;;15.40;1.00;;;;;;5052766;28;20123;-62
2023/06/15 00:47:18;;;;;;;3.83;1.95;;;15.40;1.00;;;;;;5054374;28;20481;-62
2023/06/15 00:49:45;;;;;;;4.18;1.45;;;15.90;6.50;;;;;;5038788;28;20035;-62
2023/06/15 00:52:12;;;;;;;1.98;1.25;;;15.50;23.10;;;;;;5057023;28;20029;-62
2023/06/15 00:54:40;;;;;;;2.92;1.48;;;15.80;74.50;;;;;;5056640;28;20484;-62
2023/06/15 00:57:09;;;;;;;4.93;1.70;;;15.40;99.90;;;;;;5056539;28;20045;-62
2023/06/15 00:59:35;;;;;;;2.80;1.50;;;15.40;72.90;;;;;;5056461;28;20150;-62
2023/06/15 01:02:03;;;;;;;3.10;1.67;;;15.00;1.00;;;;;;5056585;28;20041;-62
2023/06/15 01:04:29;;;;;;;3.25;1.23;;;15.30;1.00;;;;;;5055021;28;20096;-62
2023/06/15 01:07:02;;;;;;;2.25;1.65;;;14.90;1.00;;;;;;5055150;28;20041;-62
2023/06/15 01:09:30;;;;;;;2.67;1.48;;;15.20;1.00;;;;;;5056543;28;20041;-62
2023/06/15 01:11:59;;;;;;;2.90;1.40;;;15.20;1.00;;;;;;5055149;28;20055;-62
2023/06/15 01:14:29;;;;;;;3.80;1.83;;;15.30;1.00;;;;;;5056493;28;20388;-62
2023/06/15 01:17:05;;;;;;;3.03;1.50;;;15.10;1.00;;;;;;5055240;28;20037;-62
2023/06/15 01:19:57;;;;;;;2.10;1.60;;;15.00;1.00;;;;;;5056429;28;20037;-62
2023/06/15 01:22:29;;;;;;;2.63;1.70;;;15.00;1.00;;;;;;5056062;28;20098;-63
2023/06/15 01:25:04;;;;;;;2.65;1.85;;;14.80;1.00;;;;;;5056319;28;20075;-63
2023/06/15 01:27:33;;;;;;;2.92;1.70;;;14.80;1.00;;;;;;5071630;28;20473;-62
2023/06/15 01:30:01;;;;;;;2.88;1.73;;;14.90;1.00;;;;;;5054918;28;20507;-62
2023/06/15 01:32:27;;;;;;;2.47;1.40;;;14.90;1.00;;;;;;5054892;28;20400;-62
2023/06/15 01:34:54;;;;;;;2.83;1.33;;;14.90;1.00;;;;;;5055794;28;20036;-62
2023/06/15 01:37:19;;;;;;;2.53;1.67;;;15.80;1.00;;;;;;5054546;28;20073;-62
2023/06/15 01:39:45;;;;;;;2.15;1.40;;;14.70;1.00;;;;;;5056001;28;20073;-62
2023/06/15 01:42:11;;;;;;;2.33;1.60;;;14.70;1.00;;;;;;5054548;28;20068;-62
2023/06/15 01:44:39;;;;;;;2.22;1.60;;;14.70;1.00;;;;;;5055870;28;20112;-62
2023/06/15 01:47:06;;;;;;;4.03;1.90;;;14.50;1.00;;;;;;5055822;28;20068;-62
2023/06/15 01:49:33;;;;;;;2.55;1.50;;;14.70;1.00;;;;;;5055851;28;20044;-65
2023/06/15 01:51:59;;;;;;;3.20;1.40;;;14.70;1.00;;;;;;5037675;28;20120;-65
2023/06/15 01:54:25;;;;;;;2.92;1.58;;;14.70;1.00;;;;;;5055652;28;20434;-65
2023/06/15 01:56:50;;;;;;;4.00;1.38;;;14.70;1.00;;;;;;5037429;28;20041;-65
2023/06/15 01:59:16;;;;;;;2.92;1.60;;;14.60;1.00;;;;;;5055593;28;20388;-65
2023/06/15 02:01:42;;;;;;;2.78;1.92;;;14.60;1.00;;;;;;5055350;28;20569;-65
2023/06/15 02:04:08;;;;;;;3.30;1.67;;;14.50;13.40;;;;;;5053856;28;20457;-65
2023/06/15 02:06:33;;;;;;;3.40;1.55;;;14.50;10.50;;;;;;5055464;28;20404;-65
2023/06/15 02:08:59;;;;;;;2.47;1.55;;;14.20;24.10;;;;;;5053977;28;20041;-65
2023/06/15 02:11:25;;;;;;;2.45;1.50;;;14.30;10.40;;;;;;5054124;28;20095;-65
2023/06/15 02:13:52;;;;;;;3.90;1.50;;;14.30;3.00;;;;;;5055428;28;20033;-65
2023/06/15 02:16:19;;;;;;;4.75;2.20;;;14.30;7.10;;;;;;5055314;28;20469;-65
2023/06/15 02:18:45;;;;;;;7.88;1.98;;;14.30;5.90;;;;;;5055281;28;20400;-65
2023/06/15 02:21:12;;;;;;;2.92;1.35;;;14.80;5.40;;;;;;5053578;28;20044;-65
2023/06/15 02:23:38;;;;;;;4.53;1.77;;;14.30;12.80;;;;;;5055197;28;20484;-65
2023/06/15 02:26:03;;;;;;;3.78;1.67;;;14.20;21.30;;;;;;5036864;28;20098;-65
2023/06/15 02:28:29;;;;;;;2.72;1.63;;;14.20;14.70;;;;;;5054986;28;20091;-65
2023/06/15 02:30:55;;;;;;;4.07;1.65;;;14.20;14.60;;;;;;5053822;28;20462;-65
2023/06/15 02:33:20;;;;;;;3.10;1.73;;;14.10;33.80;;;;;;5053363;28;20049;-65
2023/06/15 02:35:46;;;;;;;2.17;1.60;;;14.10;92.20;;;;;;5054673;28;20377;-65
2023/06/15 02:38:12;;;;;;;5.20;1.77;;;14.00;86.70;;;;;;5054980;28;20045;-65
2023/06/15 02:40:37;;;;;;;4.10;2.00;;;14.00;99.90;;;;;;5053362;28;20044;-65
2023/06/15 02:43:03;;;;;;;3.20;1.83;;;13.90;99.90;;;;;;5053294;28;20071;-65
2023/06/15 02:45:29;;;;;;;3.13;2.08;;;13.90;99.90;;;;;;5053431;28;20033;-65
2023/06/15 02:47:56;;;;;;;6.93;1.92;;;13.90;99.90;;;;;;5054668;28;20124;-65
2023/06/15 02:50:21;;;;;;;6.22;2.17;;;13.90;99.90;;;;;;5054684;28;20409;-65
2023/06/15 02:52:47;;;;;;;3.38;1.90;;;13.90;99.90;;;;;;5054435;28;20041;-65
2023/06/15 02:55:13;;;;;;;3.53;2.40;;;13.90;99.90;;;;;;5053133;28;20097;-65
2023/06/15 02:57:40;;;;;;;3.20;2.13;;;13.90;99.90;;;;;;5054573;28;20476;-64
2023/06/15 03:00:08;;;;;;;3.67;2.08;;;14.00;99.90;;;;;;5054539;28;20060;-62
2023/06/15 03:02:35;;;;;;;3.47;2.03;;;14.00;99.90;;;;;;5054263;28;20059;-62
2023/06/15 03:05:02;;;;;;;3.53;2.15;;;14.00;99.90;;;;;;5054415;28;20029;-62
2023/06/15 03:07:30;;;;;;;2.85;2.15;;;14.00;99.90;;;;;;5052731;28;20053;-62
2023/06/15 03:09:56;;;;;;;7.45;2.25;;;14.10;99.90;;;;;;5052208;28;20086;-62
2023/06/15 03:12:21;;;;;;;6.90;2.45;;;14.10;99.90;;;;;;5054180;28;20474;-62
2023/06/15 03:14:53;;;;;;;4.72;2.10;;;14.10;99.90;;;;;;5053851;28;20116;-62
2023/06/15 03:17:21;;;;;;;4.10;2.20;;;14.10;99.90;;;;;;5053926;28;20045;-63
2023/06/15 03:19:47;;;;;;;8.52;2.45;;;14.00;99.90;;;;;;5054145;28;20048;-62
2023/06/15 03:22:14;;;;;;;3.13;2.17;;;13.90;99.90;;;;;;5052814;28;20435;-62
2023/06/15 03:24:41;;;;;;;3.30;1.70;;;14.10;99.90;;;;;;5053781;28;20124;-62
2023/06/15 03:27:09;;;;;;;3.05;2.00;;;14.10;99.90;;;;;;5053963;28;20052;-62
2023/06/15 03:29:39;;;;;;;4.50;2.45;;;14.10;99.90;;;;;;5053985;28;20033;-62
2023/06/15 03:32:06;;;;;;;3.33;1.90;;;14.10;99.90;;;;;;5053874;28;20048;-62
2023/06/15 03:34:32;;;;;;;4.45;2.60;;;14.10;99.90;;;;;;5053669;28;20049;-63
2023/06/15 03:36:58;;;;;;;4.40;1.92;;;14.00;99.90;;;;;;5053519;28;20048;-62
2023/06/15 03:39:23;;;;;;;4.15;2.25;;;14.00;99.90;;;;;;5052180;28;20045;-62
2023/06/15 03:41:52;;;;;;;3.70;2.20;;;14.10;99.90;;;;;;5053685;28;20041;-62
2023/06/15 03:44:18;;;;;;;5.07;2.25;;;14.10;99.90;;;;;;5053677;28;20051;-62
2023/06/15 03:46:44;;;;;;;6.53;2.35;;;14.00;99.90;;;;;;5053638;28;20033;-62
2023/06/15 03:49:10;;;;;;;3.65;2.10;;;14.10;99.90;;;;;;5053600;28;20033;-62
2023/06/15 03:51:37;;;;;;;6.28;2.38;;;14.10;99.90;;;;;;5052016;28;20098;-62
2023/06/15 03:54:04;;;;;;;3.33;2.03;;;14.10;99.90;;;;;;5053286;28;20045;-62
2023/06/15 03:56:30;;;;;;;5.47;2.63;;;14.10;99.90;;;;;;5053052;28;20044;-62
2023/06/15 03:58:56;;;;;;;4.60;2.92;;;14.10;99.90;;;;;;5053190;28;20071;-62
2023/06/15 04:01:24;;;;;;;4.13;2.38;;;14.20;99.90;;;;;;5051837;28;20048;-62
2023/06/15 04:03:50;;;;;;;5.75;2.40;;;14.20;99.90;;;;;;5053000;28;20056;-62
2023/06/15 04:06:16;;;;;;;7.60;2.92;;;14.20;99.90;;;;;;5052030;28;20484;-62
2023/06/15 04:08:43;;;;;;;3.72;2.55;;;14.20;99.90;;;;;;5051532;28;20047;-62
2023/06/15 04:11:09;;;;;;;4.88;2.75;;;14.20;99.90;;;;;;5052951;28;20064;-62
2023/06/15 04:13:35;;;;;;;9.60;2.83;;;14.20;99.90;;;;;;5051597;28;20041;-62
2023/06/15 04:16:00;;;;;;;5.63;2.70;;;14.20;99.90;;;;;;5053148;28;20405;-62
2023/06/15 04:18:26;;;;;;;4.43;2.33;;;14.30;99.90;;;;;;5052675;28;20574;-62
2023/06/15 04:20:52;;;;;;;3.05;2.20;;;15.20;99.90;;;;;;5052461;28;20037;-63
2023/06/15 04:23:21;;;;;;;3.20;2.10;;;14.40;99.90;;;;;;5051691;28;20098;-62
2023/06/15 04:25:47;;;;;;;4.03;1.92;;;14.40;99.90;;;;;;5052743;28;20024;-62
2023/06/15 04:28:13;;;;;;;5.05;2.75;;;14.50;99.90;;;;;;5052907;28;20048;-62
2023/06/15 04:30:40;;;;;;;6.28;1.92;;;14.50;99.90;;;;;;5051592;28;20032;-62
2023/06/15 04:33:12;;;;;;;3.88;2.20;;;16.10;99.90;;;;;;5052932;28;20495;-62
2023/06/15 04:35:45;;;;;;;3.85;2.33;;;14.60;99.90;;;;;;5052652;28;20456;-62
2023/06/15 04:38:12;;;;;;;3.40;1.90;;;15.40;99.90;;;;;;5052950;28;20047;-63
2023/06/15 04:40:39;;;;;;;2.50;1.88;;;15.60;99.90;;;;;;5051304;28;20041;-63
2023/06/15 04:43:05;;;;;;;4.35;2.08;;;14.80;99.90;;;;;;5034979;28;20045;-63
2023/06/15 04:45:30;;;;;;;8.30;1.92;;;14.90;99.90;;;;;;5052658;28;20040;-63
2023/06/15 04:47:56;;;;;;;3.65;2.03;;;14.90;99.90;;;;;;5052709;28;20041;-63
2023/06/15 04:50:21;;;;;;;2.17;1.55;;;15.00;99.90;;;;;;5051284;28;20037;-63
2023/06/15 04:52:48;;;;;;;4.07;1.90;;;15.00;99.90;;;;;;5052666;28;20033;-63
2023/06/15 04:55:14;;;;;;;3.25;1.88;;;17.00;99.90;;;;;;5051114;28;20180;-63
2023/06/15 04:57:39;;;;;;;6.20;2.35;;;15.00;99.90;;;;;;5051198;28;20136;-62
2023/06/15 05:00:10;;;;;;;5.43;2.03;;;15.80;93.20;;;;;;5052420;28;20073;-63
2023/06/15 05:02:35;;;;;;;4.55;1.80;;;15.40;84.00;;;;;;5052392;28;20110;-63
2023/06/15 05:05:02;;;;;;;2.83;1.75;;;15.50;51.40;;;;;;5051415;28;20052;-63
2023/06/15 05:07:28;;;;;;;3.17;1.75;;;15.50;40.90;;;;;;5052608;28;20048;-63
2023/06/15 05:09:54;;;;;;;3.15;1.88;;;15.60;29.70;;;;;;5052632;28;20396;-63
2023/06/15 05:12:20;;;;;;;2.72;1.60;;;15.70;31.70;;;;;;5052600;28;20033;-63
2023/06/15 05:14:46;;;;;;;3.90;1.80;;;15.80;29.30;;;;;;5052605;28;20056;-63
2023/06/15 05:17:12;;;;;;;3.38;1.73;;;16.00;14.60;;;;;;5052557;28;20040;-63
2023/06/15 05:19:38;;;;;;;3.38;1.48;;;16.10;5.30;;;;;;5052522;28;20048;-63
2023/06/15 05:22:05;;;;;;;4.15;2.00;;;16.10;1.00;;;;;;5050955;28;20120;-65
2023/06/15 05:24:31;;;;;;;3.33;2.13;;;16.20;1.00;;;;;;5052467;28;20036;-63
2023/06/15 05:26:57;;;;;;;2.50;1.42;;;16.10;1.00;;;;;;5052072;28;20398;-67
2023/06/15 05:29:23;;;;;;;2.65;1.83;;;16.30;1.00;;;;;;5050932;28;20041;-71
2023/06/15 05:31:48;;;;;;;4.72;1.85;;;16.30;1.00;;;;;;5050883;28;20045;-65
2023/06/15 05:34:14;;;;;;;4.28;1.50;;;16.60;1.00;;;;;;5055452;28;20069;-62
2023/06/15 05:36:40;;;;;;;2.92;1.80;;;16.70;1.00;;;;;;5054591;28;20116;-63
2023/06/15 05:39:06;;;;;;;3.78;2.20;;;16.80;1.00;;;;;;5055844;28;20086;-62
2023/06/15 05:41:32;;;;;;;3.28;1.88;;;17.00;1.00;;;;;;5038077;28;20102;-62
2023/06/15 05:44:02;;;;;;;4.82;2.10;;;16.50;1.00;;;;;;5056039;28;20037;-62
2023/06/15 05:46:27;;;;;;;3.83;1.60;;;17.20;1.00;;;;;;5055700;28;20037;-62
2023/06/15 05:48:53;;;;;;;2.47;1.65;;;17.10;1.00;;;;;;5055838;28;20306;-62
2023/06/15 05:51:19;;;;;;;1.95;1.30;;;17.40;1.00;;;;;;5055812;28;20082;-62
2023/06/15 05:53:44;;;;;;;2.53;1.75;;;17.50;1.00;;;;;;5055858;28;20488;-62
2023/06/15 05:56:10;;;;;;;2.47;1.60;;;17.50;1.00;;;;;;5055811;28;20045;-62
2023/06/15 05:58:37;;;;;;;1.48;1.00;;;17.70;1.00;;;;;;5055683;28;20041;-69
2023/06/15 06:01:03;;;;;;;1.85;1.40;;;17.80;1.00;;;;;;5055479;28;20064;-65
2023/06/15 06:03:29;;;;;;;3.28;1.50;;;17.90;1.00;;;;;;5053840;28;20053;-64
2023/06/15 06:05:54;;;;;;;4.22;1.60;;;17.90;1.00;;;;;;5055679;28;20407;-70
2023/06/15 06:08:21;;;;;;;3.30;1.83;;;18.10;1.00;;;;;;5037399;28;20397;-63
2023/06/15 06:10:49;;;;;;;2.20;1.42;;;18.20;1.00;;;;;;5053988;28;20106;-64
2023/06/15 06:13:15;;;;;;;2.15;1.35;;;18.20;1.00;;;;;;5053955;28;20439;-63
2023/06/15 06:15:41;;;;;;;1.95;1.38;;;18.50;1.00;;;;;;5055273;28;20036;-63
2023/06/15 06:18:07;;;;;;;2.17;1.50;;;18.50;1.00;;;;;;5053829;28;20414;-62
2023/06/15 06:20:32;;;;;;;1.73;1.30;;;18.70;1.00;;;;;;5053532;28;20052;-62
2023/06/15 06:22:58;;;;;;;2.08;1.42;;;18.80;1.00;;;;;;5053588;28;20136;-62
2023/06/15 06:25:24;;;;;;;2.33;1.40;;;18.90;1.00;;;;;;5053691;28;20052;-62
2023/06/15 06:27:49;;;;;;;2.38;1.38;;;19.10;1.00;;;;;;5054866;28;20045;-63
2023/06/15 06:30:15;;;;;;;4.63;1.50;;;19.20;1.00;;;;;;5054900;28;20048;-62
2023/06/15 06:32:41;;;;;;;4.85;1.55;;;19.30;1.00;;;;;;5055022;28;20033;-62
2023/06/15 06:35:07;;;;;;;2.63;1.35;;;19.40;1.00;;;;;;5054764;28;20538;-63
2023/06/15 06:37:32;;;;;;;5.72;1.73;;;19.50;1.00;;;;;;5036736;28;20044;-62
2023/06/15 06:39:59;;;;;;;2.25;1.27;;;19.50;1.00;;;;;;5053467;28;20041;-63
2023/06/15 06:42:24;;;;;;;2.25;1.50;;;20.10;1.00;;;;;;5053393;28;20044;-63
2023/06/15 06:44:50;;;;;;;2.42;1.48;;;19.70;1.00;;;;;;5069155;28;20049;-63
2023/06/15 06:47:16;;;;;;;2.40;1.23;;;19.70;1.00;;;;;;5054775;28;20048;-63
2023/06/15 06:49:42;;;;;;;2.72;1.48;;;19.90;1.00;;;;;;5054734;28;20045;-62
2023/06/15 06:52:08;;;;;;;3.03;1.60;;;20.10;1.00;;;;;;5054407;28;20041;-63
2023/06/15 06:54:34;;;;;;;1.85;1.30;;;20.20;1.00;;;;;;5054630;28;20079;-63
2023/06/15 06:57:00;;;;;;;2.53;1.35;;;20.30;1.00;;;;;;5053097;28;20037;-63
2023/06/15 06:59:26;;;;;;;1.25;1.08;;;20.40;1.00;;;;;;5054575;28;20044;-63
2023/06/15 07:01:51;;;;;;;2.10;1.52;;;20.50;1.00;;;;;;5054637;28;20040;-65
2023/06/15 07:04:17;;;;;;;5.15;1.45;;;20.60;1.00;;;;;;5054256;28;20497;-63
2023/06/15 07:06:43;;;;;;;2.35;1.45;;;20.70;1.00;;;;;;5053540;28;20487;-63
2023/06/15 07:09:09;;;;;;;3.03;1.60;;;20.80;1.00;;;;;;5053210;28;20106;-63
2023/06/15 07:11:34;;;;;;;3.15;1.40;;;20.90;1.00;;;;;;5054437;28;20037;-63
2023/06/15 07:14:03;;;;;;;2.67;1.33;;;21.00;1.00;;;;;;5054370;28;20107;-63
2023/06/15 07:16:31;;;;;;;3.38;1.65;;;21.10;1.00;;;;;;5054350;28;20166;-63
2023/06/15 07:18:58;;;;;;;2.00;1.25;;;21.10;1.00;;;;;;5036492;28;20040;-63
2023/06/15 07:21:23;;;;;;;2.65;1.58;;;21.20;1.00;;;;;;5054112;28;20036;-63
2023/06/15 07:23:49;;;;;;;2.97;1.30;;;21.50;1.00;;;;;;5053804;28;20448;-63
2023/06/15 07:26:15;;;;;;;4.63;1.40;;;21.50;1.00;;;;;;5054082;28;20059;-63
2023/06/15 07:28:40;;;;;;;4.93;1.35;;;21.50;1.00;;;;;;5053570;28;20504;-63
2023/06/15 07:31:08;;;;;;;2.58;1.35;;;21.70;1.00;;;;;;5053997;28;20029;-63
2023/06/15 07:33:34;;;;;;;1.77;1.17;;;21.60;1.00;;;;;;5053894;28;20041;-63
2023/06/15 07:36:00;;;;;;;1.67;1.15;;;21.80;1.00;;;;;;5053612;28;20037;-63
2023/06/15 07:38:26;;;;;;;3.40;1.40;;;21.90;1.00;;;;;;5053874;28;20048;-63
2023/06/15 07:40:52;;;;;;;2.03;1.55;;;22.00;1.00;;;;;;5053780;28;20072;-63
2023/06/15 07:43:19;;;;;;;1.80;1.25;;;22.20;1.00;;;;;;5053485;28;20481;-63
2023/06/15 07:45:45;;;;;;;3.10;1.23;;;22.20;1.00;;;;;;5052464;28;20612;-63
2023/06/15 07:48:11;;;;;;;1.48;1.08;;;22.30;1.00;;;;;;5051984;28;20119;-63
2023/06/15 07:50:36;;;;;;;1.95;1.20;;;22.40;1.00;;;;;;5053591;28;20112;-64
2023/06/15 07:53:02;;;;;;;1.98;1.15;;;22.60;1.00;;;;;;5035713;28;20476;-65
2023/06/15 07:55:28;;;;;;;3.17;1.38;;;;;;;;;;5053100;28;20069;-66
2023/06/15 07:57:54;;;;;;;1.83;1.23;;;22.70;1.00;;;;;;5051978;28;20052;-66
2023/06/15 08:00:20;;;;;;;2.67;1.35;;;22.80;1.00;;;;;;5053182;28;20049;-66
2023/06/15 08:02:46;;;;;;;2.10;1.20;;;22.80;1.00;;;;;;5051812;28;20465;-66
2023/06/15 08:05:11;;;;;;;1.90;1.20;;;23.00;1.00;;;;;;5053320;28;20049;-66
2023/06/15 08:07:37;;;;;;;2.83;1.40;;;23.20;1.00;;;;;;5053210;28;20037;-66
2023/06/15 08:10:03;;;;;;;1.63;1.05;;;23.30;1.00;;;;;;5053186;28;20074;-66
2023/06/15 08:12:28;;;;;;;2.80;1.30;;;23.50;99.90;;;;;;5051652;28;20076;-66
2023/06/15 08:14:54;;;;;;;1.92;1.27;;;23.40;99.90;;;;;;5051970;28;20072;-66
2023/06/15 08:17:20;;;;;;;2.10;1.15;;;;;;;;;;5051918;28;20052;-67
2023/06/15 08:19:47;;;;;;;2.20;1.10;;;23.60;1.00;;;;;;5053155;28;20047;-66
2023/06/15 08:22:13;;;;;;;2.85;1.52;;;23.60;1.00;;;;;;5052886;28;20045;-66
2023/06/15 08:24:39;;;;;;;2.00;1.25;;;23.70;1.00;;;;;;5052983;28;20044;-66
2023/06/15 08:27:05;;;;;;;1.98;1.25;;;23.70;1.00;;;;;;5051420;28;20401;-66
2023/06/15 08:29:31;;;;;;;2.38;1.10;;;23.70;1.00;;;;;;5052658;28;20037;-66
2023/06/15 08:31:57;;;;;;;2.78;1.20;;;23.70;1.00;;;;;;5034932;28;20043;-66
2023/06/15 08:34:22;;;;;;;3.95;1.40;;;23.60;1.00;;;;;;5052996;28;20477;-66
2023/06/15 08:36:49;;;;;;;2.35;1.33;;;23.70;1.00;;;;;;5052997;28;20072;-66
2023/06/15 08:39:15;;;;;;;1.98;1.20;;;23.70;1.00;;;;;;5052613;28;20037;-67
2023/06/15 08:41:44;;;;;;;2.20;1.15;;;23.70;1.00;;;;;;5068329;28;20044;-65
2023/06/15 08:44:10;;;;;;;2.20;1.07;;;23.70;1.00;;;;;;5052974;28;20044;-66
2023/06/15 08:46:36;;;;;;;1.77;1.20;;;23.90;1.00;;;;;;5051254;28;20037;-66
2023/06/15 08:49:03;;;;;;;2.15;1.55;;;23.70;1.00;;;;;;5051192;28;20194;-66
2023/06/15 08:51:29;;;;;;;2.90;1.33;;;23.80;1.00;;;;;;5034775;28;20504;-66
2023/06/15 08:53:55;;;;;;;1.75;1.23;;;23.90;1.00;;;;;;5034640;28;20037;-66
2023/06/15 08:56:21;;;;;;;2.00;1.20;;;23.90;1.00;;;;;;5051356;28;20048;-66
2023/06/15 08:58:50;;;;;;;3.03;1.50;;;23.90;1.00;;;;;;5051031;28;20048;-66
2023/06/15 09:01:23;;;;;;;5.45;1.30;;;24.00;1.00;;;;;;5052558;28;20503;-66
2023/06/15 09:03:54;;;;;;;2.95;1.00;;;24.00;1.00;;;;;;5050884;28;20057;-66
2023/06/15 09:06:21;;;;;;;3.67;1.30;;;24.10;1.00;;;;;;5050949;28;20053;-66
2023/06/15 09:08:57;;;;;;;2.90;1.52;;;24.00;1.00;;;;;;5053628;28;20397;-66
2023/06/15 09:11:23;;;;;;;3.05;1.35;;;24.10;1.00;;;;;;5055223;28;20485;-66
2023/06/15 09:13:50;;;;;;;1.98;1.55;;;24.10;1.00;;;;;;5056180;28;20047;-66
2023/06/15 09:16:16;;;;;;;1.88;1.20;;;24.10;1.00;;;;;;5056310;28;20041;-66
2023/06/15 09:18:51;;;;;;;1.10;1.00;;;24.20;1.00;;;;;;5054970;28;20550;-66
2023/06/15 09:21:21;;;;;;;1.77;1.15;;;24.20;1.00;;;;;;5056178;28;20037;-66
2023/06/15 09:23:47;;;;;;;1.92;1.10;;;24.30;1.00;;;;;;5056554;28;20041;-66
2023/06/15 09:26:27;;;;;;;1.67;1.08;;;24.40;1.00;;;;;;5056131;28;20400;-66
2023/06/15 09:28:57;;;;;;;2.10;1.38;;;24.40;1.00;;;;;;5056303;28;20438;-66
2023/06/15 09:31:36;;;;;;;5.47;1.30;;;24.50;1.00;;;;;;5054701;28;20102;-66
2023/06/15 09:34:13;;;;;;;4.68;1.27;;;24.60;1.00;;;;;;5038134;28;20123;-66
2023/06/15 09:36:41;;;;;;;1.90;1.30;;;24.60;1.00;;;;;;5056219;28;20108;-66
2023/06/15 09:39:11;;;;;;;1.75;0.90;;;24.60;1.00;;;;;;5056215;28;20048;-66
2023/06/15 09:42:00;;;;;;;4.78;1.23;;;24.80;1.00;;;;;;5054551;28;20408;-66
2023/06/15 09:44:26;;;;;;;3.22;1.15;;;24.60;1.00;;;;;;5037882;28;20124;-66
2023/06/15 09:46:56;;;;;;;2.85;1.08;;;24.90;1.00;;;;;;5054781;28;20264;-66
2023/06/15 09:49:25;;;;;;;2.60;1.42;;;24.80;1.00;;;;;;5055873;28;20048;-66
2023/06/15 09:51:51;;;;;;;2.75;1.33;;;24.90;1.00;;;;;;5054674;28;20070;-66
2023/06/15 09:54:22;;;;;;;2.17;1.30;;;25.00;1.00;;;;;;5054528;28;20481;-66
2023/06/15 09:56:51;;;;;;;2.40;1.27;;;24.90;1.00;;;;;;5055797;28;20047;-66
2023/06/15 09:59:18;;;;;;;1.75;1.00;;;24.90;1.00;;;;;;5037877;28;20041;-66
2023/06/15 10:01:49;;;;;;;4.32;1.50;;;24.70;1.00;;;;;;5054207;28;20092;-66
2023/06/15 10:04:21;;;;;;;1.20;1.00;;;25.00;1.00;;;;;;5055258;28;20049;-66
2023/06/15 10:06:55;;;;;;;1.77;1.13;;;24.90;1.00;;;;;;5054175;28;20057;-67
2023/06/15 10:09:29;;;;;;;1.40;1.15;;;24.90;1.00;;;;;;5055590;28;20088;-66
2023/06/15 10:12:11;;;;;;;2.88;1.70;;;24.90;1.00;;;;;;5055630;28;20399;-66
2023/06/15 10:15:08;;;;;;;1.75;1.00;;;25.00;1.00;;;;;;5055522;28;20036;-68
2023/06/15 10:17:35;;;;;;;2.05;1.30;;;24.90;1.00;;;;;;5053839;28;20076;-63
2023/06/15 10:20:23;;;;;;;3.55;1.25;;;24.90;1.00;;;;;;5069298;28;20123;-63
2023/06/15 10:22:57;;;;;;;1.77;1.00;;;25.00;1.00;;;;;;5055373;28;20073;-63
2023/06/15 10:25:27;;;;;;;5.35;2.15;;;24.90;1.00;;;;;;5055245;28;20071;-63
2023/06/15 10:27:54;;;;;;;2.03;1.13;;;24.90;1.00;;;;;;5053625;28;20084;-63
2023/06/15 10:30:33;;;;;;;2.25;1.35;;;24.30;1.00;;;;;;5055161;28;20103;-63
2023/06/15 10:33:20;;;;;;;2.35;1.27;;;24.90;1.00;;;;;;5037239;28;20076;-63
2023/06/15 10:36:03;;;;;;;2.15;1.25;;;24.80;1.00;;;;;;5053570;28;20059;-64
2023/06/15 10:38:37;;;;;;;2.67;1.33;;;24.70;1.00;;;;;;5055121;28;20041;-63
2023/06/15 10:41:04;;;;;;;1.75;1.15;;;24.70;1.00;;;;;;5054698;28;20048;-64
2023/06/15 10:43:30;;;;;;;5.05;1.23;;;24.70;1.00;;;;;;5053856;28;20052;-63
2023/06/15 10:45:56;;;;;;;2.53;1.50;;;24.80;1.00;;;;;;5053365;28;20036;-63
2023/06/15 10:48:27;;;;;;;3.47;1.50;;;24.90;1.00;;;;;;5054821;28;20045;-63
2023/06/15 10:51:02;;;;;;;3.13;1.30;;;24.90;1.00;;;;;;5054674;28;20503;-63
2023/06/15 10:53:28;;;;;;;2.47;1.35;;;24.70;1.00;;;;;;5054753;28;20033;-63
2023/06/15 10:55:56;;;;;;;2.20;1.40;;;24.60;1.00;;;;;;5054794;28;20037;-66
2023/06/15 10:58:24;;;;;;;3.80;1.40;;;24.80;1.00;;;;;;5054705;28;20090;-67
2023/06/15 11:01:19;;;;;;;2.47;1.38;;;24.90;1.00;;;;;;5053407;28;20045;-67
2023/06/15 11:03:45;;;;;;;1.90;1.30;;;24.90;1.00;;;;;;5036240;28;20045;-67
2023/06/15 11:06:21;;;;;;;2.83;1.50;;;25.00;1.00;;;;;;5053135;28;20049;-67
2023/06/15 11:09:00;;;;;;;2.42;1.35;;;24.80;1.00;;;;;;5053210;28;20060;-63
2023/06/15 11:11:34;;;;;;;2.38;1.35;;;24.80;1.00;;;;;;5052929;28;20171;-63
2023/06/15 11:14:04;;;;;;;2.28;1.52;;;24.80;1.00;;;;;;5054394;28;20036;-63
2023/06/15 11:16:39;;;;;;;1.53;1.03;;;24.90;1.00;;;;;;5052882;28;20056;-63
2023/06/15 11:19:10;;;;;;;1.60;1.13;;;25.00;1.00;;;;;;5054252;28;20283;-65
2023/06/15 11:22:05;;;;;;;1.88;1.27;;;24.90;1.00;;;;;;5052558;28;20454;-63
2023/06/15 11:24:39;;;;;;;1.50;1.00;;;24.90;1.00;;;;;;5054215;28;20080;-63
2023/06/15 11:27:09;;;;;;;2.40;1.25;;;25.00;1.00;;;;;;5054038;28;20504;-63
2023/06/15 11:29:40;;;;;;;2.08;1.20;;;25.00;1.00;;;;;;5054048;28;20125;-62
2023/06/15 11:32:07;;;;;;;2.10;1.25;;;25.00;1.00;;;;;;5052171;28;20033;-63
2023/06/15 11:34:33;;;;;;;2.92;1.52;;;25.10;1.00;;;;;;5053691;28;20048;-63
2023/06/15 11:37:03;;;;;;;2.65;1.55;;;25.10;1.00;;;;;;5053924;28;20041;-66
2023/06/15 11:39:30;;;;;;;4.22;1.42;;;25.20;1.00;;;;;;5053849;28;20033;-66
2023/06/15 11:41:57;;;;;;;4.50;1.38;;;25.10;1.00;;;;;;5053820;28;20067;-66
2023/06/15 11:44:25;;;;;;;2.88;1.20;;;25.20;1.00;;;;;;5053714;28;20072;-66
2023/06/15 11:47:01;;;;;;;1.92;1.05;;;25.30;1.00;;;;;;5053799;28;20120;-66
2023/06/15 11:49:37;;;;;;;3.55;1.30;;;25.20;1.00;;;;;;5052204;28;20049;-67
2023/06/15 11:52:04;;;;;;;2.70;1.40;;;25.20;1.00;;;;;;5053686;28;20075;-66
2023/06/15 11:54:30;;;;;;;2.00;1.17;;;25.30;1.00;;;;;;5052159;28;20045;-66
2023/06/15 11:56:57;;;;;;;2.20;1.10;;;25.30;1.00;;;;;;5053577;28;20037;-66
2023/06/15 11:59:24;;;;;;;3.95;1.40;;;25.20;1.00;;;;;;5051993;28;20048;-66
2023/06/15 12:01:51;;;;;;;2.60;1.23;;;25.40;1.00;;;;;;5053280;28;20037;-67
2023/06/15 12:04:17;;;;;;;6.85;1.60;;;25.40;1.00;;;;;;5053024;28;20088;-67
2023/06/15 12:06:45;;;;;;;1.75;1.17;;;25.50;1.00;;;;;;5053420;28;20080;-66
2023/06/15 12:09:11;;;;;;;2.15;1.17;;;25.70;1.00;;;;;;5053099;28;20032;-66
2023/06/15 12:11:38;;;;;;;3.38;1.27;;;25.60;1.00;;;;;;5035226;28;20045;-66
2023/06/15 12:14:09;;;;;;;8.00;2.05;;;25.60;1.00;;;;;;5052060;28;20051;-66
2023/06/15 12:16:36;;;;;;;4.00;0.93;;;25.50;1.00;;;;;;5052057;28;20051;-66
2023/06/15 12:19:03;;;;;;;1.77;1.17;;;25.60;1.00;;;;;;5053227;28;20049;-66
2023/06/15 12:21:35;;;;;;;2.70;1.50;;;25.50;1.00;;;;;;5053225;28;20045;-67
2023/06/15 12:24:02;;;;;;;1.98;1.10;;;25.40;1.00;;;;;;5053170;28;20033;-67
2023/06/15 12:26:34;;;;;;;3.15;1.67;;;25.50;1.00;;;;;;5053121;28;20076;-66
2023/06/15 12:29:01;;;;;;;2.17;1.10;;;25.70;1.00;;;;;;5053061;28;20041;-66
2023/06/15 12:31:33;;;;;;;2.15;1.30;;;25.50;1.00;;;;;;5053073;28;20045;-63
2023/06/15 12:34:07;;;;;;;2.38;1.10;;;25.70;1.00;;;;;;5053077;28;20041;-63
2023/06/15 12:36:33;;;;;;;4.95;1.48;;;25.60;1.00;;;;;;5053015;28;20106;-63
2023/06/15 12:39:04;;;;;;;3.75;1.40;;;25.60;1.00;;;;;;5052767;28;20056;-63
2023/06/15 12:41:29;;;;;;;1.90;1.20;;;25.70;1.00;;;;;;5052747;28;20056;-63
2023/06/15 12:43:55;;;;;;;2.50;1.35;;;25.80;1.00;;;;;;5052271;28;20423;-63
2023/06/15 12:46:21;;;;;;;1.95;1.17;;;25.90;1.00;;;;;;5051367;28;20037;-63
2023/06/15 12:48:46;;;;;;;2.13;1.20;;;25.80;1.00;;;;;;5067890;28;20118;-63
2023/06/15 12:51:14;;;;;;;3.22;1.00;;;25.80;1.00;;;;;;5052803;28;20041;-63
2023/06/15 12:53:40;;;;;;;1.55;1.15;;;25.90;1.00;;;;;;5051305;28;20048;-63
2023/06/15 12:56:06;;;;;;;4.00;1.10;;;26.20;1.00;;;;;;5052665;28;20393;-63
2023/06/15 12:58:32;;;;;;;2.75;1.30;;;26.30;1.00;;;;;;5052697;28;20072;-63